createdAt,value
2017-12-12T00:00:43.391Z,30.53
2017-12-12T00:03:10.793Z,29.83
2017-12-12T00:05:38.178Z,31.80
2017-12-12T00:08:05.575Z,29.20
2017-12-12T00:10:32.962Z,33.70
2017-12-12T00:13:00.374Z,33.00
2017-12-12T00:15:27.867Z,29.13
2017-12-12T00:17:55.252Z,32.10
2017-12-12T00:20:22.651Z,30.27
2017-12-12T00:22:50.043Z,34.70
2017-12-12T00:25:17.466Z,27.27
2017-12-12T00:27:44.855Z,33.67
2017-12-12T00:30:12.262Z,35.77
2017-12-12T00:32:39.738Z,38.50
2017-12-12T00:35:07.140Z,40.93
2017-12-12T00:37:34.548Z,42.53
2017-12-12T00:40:01.934Z,42.87
2017-12-12T00:42:29.324Z,43.37
2017-12-12T00:44:56.722Z,45.40
2017-12-12T00:47:24.115Z,51.50
2017-12-12T00:49:51.511Z,49.63
2017-12-12T00:52:18.890Z,51.50
2017-12-12T00:54:46.290Z,50.50
2017-12-12T00:57:13.786Z,57.07
2017-12-12T00:59:41.185Z,52.57
2017-12-12T01:02:08.568Z,54.27
2017-12-12T01:04:35.967Z,54.63
2017-12-12T01:07:03.371Z,48.83
2017-12-12T01:09:30.798Z,54.20
2017-12-12T01:11:58.147Z,52.00
2017-12-12T01:14:25.567Z,60.67
2017-12-12T01:16:52.963Z,46.57
2017-12-12T01:19:20.360Z,46.30
2017-12-12T01:21:47.759Z,41.57
2017-12-12T01:24:15.153Z,44.67
2017-12-12T01:26:42.553Z,41.70
2017-12-12T01:29:09.935Z,38.87
2017-12-12T01:31:37.468Z,42.37
2017-12-12T01:34:04.850Z,37.57
2017-12-12T01:36:32.262Z,40.03
2017-12-12T01:38:59.638Z,44.77
2017-12-12T01:41:27.039Z,41.73
2017-12-12T01:43:54.431Z,46.40
2017-12-12T01:46:21.836Z,53.20
2017-12-12T01:48:49.231Z,59.03
2017-12-12T01:51:16.703Z,54.17
2017-12-12T01:53:44.090Z,56.40
2017-12-12T01:56:11.483Z,58.00
2017-12-12T01:58:38.963Z,65.43
2017-12-12T02:01:06.353Z,65.80
2017-12-12T02:03:33.747Z,59.97
2017-12-12T02:06:01.135Z,67.23
2017-12-12T02:08:28.530Z,64.40
2017-12-12T02:10:55.919Z,59.07
2017-12-12T02:13:23.314Z,66.30
2017-12-12T02:15:50.734Z,68.80
2017-12-12T02:18:18.135Z,66.80
2017-12-12T02:20:45.536Z,69.80
2017-12-12T02:23:12.938Z,72.50
2017-12-12T02:25:40.331Z,68.47
2017-12-12T02:28:07.745Z,79.40
2017-12-12T02:30:35.137Z,66.35
2017-12-12T02:33:02.540Z,75.90
2017-12-12T02:35:29.992Z,65.53
2017-12-12T02:37:57.390Z,91.07
2017-12-12T02:40:24.782Z,84.43
2017-12-12T02:42:52.199Z,85.13
2017-12-12T02:45:19.589Z,104.70
2017-12-12T02:47:46.997Z,116.37
2017-12-12T02:50:14.425Z,140.43
2017-12-12T02:52:41.819Z,130.90
2017-12-12T02:55:09.255Z,89.27
2017-12-12T02:57:36.610Z,85.30
2017-12-12T03:00:04.010Z,113.47
2017-12-12T03:02:31.394Z,110.60
2017-12-12T03:04:58.790Z,81.00
2017-12-12T03:07:26.265Z,101.43
2017-12-12T03:09:53.647Z,84.43
2017-12-12T03:12:21.034Z,90.90
2017-12-12T03:14:48.428Z,72.47
2017-12-12T03:17:15.819Z,74.70
2017-12-12T03:19:43.211Z,81.73
2017-12-12T03:22:10.603Z,78.83
2017-12-12T03:24:38.004Z,75.10
2017-12-12T03:27:05.391Z,73.53
2017-12-12T03:29:32.791Z,82.43
2017-12-12T03:32:00.183Z,45.57
2017-12-12T03:34:27.583Z,44.77
2017-12-12T03:36:54.977Z,44.70
2017-12-12T03:39:22.365Z,46.73
2017-12-12T03:41:49.771Z,43.47
2017-12-12T03:44:17.176Z,45.10
2017-12-12T03:46:44.562Z,47.97
2017-12-12T03:49:11.955Z,52.50
2017-12-12T03:51:39.358Z,49.20
2017-12-12T03:54:06.838Z,38.37
2017-12-12T03:56:34.235Z,36.70
2017-12-12T03:59:01.633Z,34.93
2017-12-12T04:01:29.022Z,30.10
2017-12-12T04:03:56.415Z,27.93
2017-12-12T04:06:23.923Z,33.13
2017-12-12T04:08:51.319Z,30.00
2017-12-12T04:11:18.706Z,27.00
2017-12-12T04:13:46.107Z,23.30
2017-12-12T04:16:13.497Z,25.83
2017-12-12T04:18:40.899Z,24.20
2017-12-12T04:21:08.283Z,22.87
2017-12-12T04:23:35.683Z,21.20
2017-12-12T04:26:03.162Z,21.03
2017-12-12T04:28:30.545Z,21.70
2017-12-12T04:30:57.947Z,21.53
2017-12-12T04:33:25.338Z,21.03
2017-12-12T04:35:52.727Z,20.83
2017-12-12T04:38:20.114Z,16.97
2017-12-12T04:40:47.502Z,19.57
2017-12-12T04:43:14.911Z,22.53
2017-12-12T04:45:42.308Z,23.80
2017-12-12T04:48:09.707Z,20.30
2017-12-12T04:50:37.115Z,23.33
2017-12-12T04:53:04.510Z,23.03
2017-12-12T04:55:31.931Z,19.10
2017-12-12T04:57:59.316Z,19.57
2017-12-12T05:00:26.711Z,22.27
2017-12-12T05:02:54.102Z,19.63
2017-12-12T05:05:21.486Z,20.87
2017-12-12T05:07:48.887Z,26.00
2017-12-12T05:10:16.270Z,25.07
2017-12-12T05:12:43.679Z,22.00
2017-12-12T05:15:11.080Z,29.43
2017-12-12T05:17:38.469Z,21.63
2017-12-12T05:20:05.867Z,22.80
2017-12-12T05:22:33.255Z,24.23
2017-12-12T05:25:00.651Z,20.60
2017-12-12T05:27:28.445Z,20.03
2017-12-12T05:29:55.897Z,21.10
2017-12-12T05:32:23.224Z,20.97
2017-12-12T05:34:50.622Z,21.73
2017-12-12T05:37:18.070Z,23.80
2017-12-12T05:39:45.471Z,19.33
2017-12-12T05:42:12.899Z,20.70
2017-12-12T05:44:40.387Z,21.10
2017-12-12T05:47:07.864Z,21.40
2017-12-12T05:49:35.310Z,20.33
2017-12-12T05:52:02.706Z,25.43
2017-12-12T05:54:30.119Z,26.10
2017-12-12T05:56:57.524Z,26.33
2017-12-12T05:59:24.933Z,28.07
2017-12-12T06:01:52.327Z,31.30
2017-12-12T06:04:19.723Z,27.50
2017-12-12T06:06:47.118Z,30.47
2017-12-12T06:09:14.534Z,26.63
2017-12-12T06:11:41.970Z,34.47
2017-12-12T06:14:09.331Z,35.57
2017-12-12T06:16:36.728Z,33.67
2017-12-12T06:19:04.130Z,38.53
2017-12-12T06:21:31.532Z,38.20
2017-12-12T06:23:58.920Z,39.70
2017-12-12T06:26:26.319Z,35.77
2017-12-12T06:28:53.723Z,40.00
2017-12-12T06:31:21.120Z,42.47
2017-12-12T06:33:48.516Z,37.43
2017-12-12T06:36:15.911Z,33.83
2017-12-12T06:38:43.305Z,38.70
2017-12-12T06:41:10.694Z,38.30
2017-12-12T06:43:38.087Z,32.13
2017-12-12T06:46:05.490Z,29.90
2017-12-12T06:48:32.874Z,22.57
2017-12-12T06:51:00.280Z,24.13
2017-12-12T06:53:27.666Z,19.40
2017-12-12T06:55:55.063Z,21.50
2017-12-12T06:58:22.469Z,19.10
2017-12-12T07:00:49.873Z,25.17
2017-12-12T07:03:17.268Z,23.80
2017-12-12T07:05:44.670Z,19.83
2017-12-12T07:08:12.088Z,21.47
2017-12-12T07:10:39.475Z,25.33
2017-12-12T07:13:06.872Z,25.60
2017-12-12T07:15:34.249Z,20.10
2017-12-12T07:18:01.659Z,28.63
2017-12-12T07:20:29.055Z,26.53
2017-12-12T07:22:56.447Z,27.30
2017-12-12T07:25:23.838Z,23.43
2017-12-12T07:27:51.259Z,22.50
2017-12-12T07:30:18.656Z,29.30
2017-12-12T07:32:46.054Z,21.47
2017-12-12T07:35:13.438Z,25.07
2017-12-12T07:37:40.837Z,26.10
2017-12-12T07:40:08.225Z,30.77
2017-12-12T07:42:35.627Z,31.90
2017-12-12T07:45:03.024Z,35.10
2017-12-12T07:47:30.511Z,29.27
2017-12-12T07:49:57.831Z,29.53
2017-12-12T07:52:25.236Z,27.90
2017-12-12T07:54:52.647Z,32.73
2017-12-12T07:57:20.039Z,32.77
2017-12-12T07:59:47.438Z,27.57
2017-12-12T08:02:14.825Z,33.33
2017-12-12T08:04:42.486Z,37.60
2017-12-12T08:07:09.871Z,28.37
2017-12-12T08:09:37.271Z,38.47
2017-12-12T08:12:04.663Z,32.03
2017-12-12T08:14:32.067Z,32.30
2017-12-12T08:16:59.460Z,29.53
2017-12-12T08:19:26.882Z,26.13
2017-12-12T08:21:54.271Z,28.30
2017-12-12T08:24:21.674Z,27.27
2017-12-12T08:26:49.069Z,27.57
2017-12-12T08:29:16.466Z,27.20
2017-12-12T08:31:43.863Z,29.37
2017-12-12T08:34:11.259Z,29.43
2017-12-12T08:36:38.647Z,25.20
2017-12-12T08:39:06.056Z,26.20
2017-12-12T08:41:33.447Z,26.33
2017-12-12T08:44:00.852Z,22.40
2017-12-12T08:46:28.238Z,34.00
2017-12-12T08:48:55.633Z,27.47
2017-12-12T08:51:23.138Z,21.63
2017-12-12T08:53:50.507Z,23.43
2017-12-12T08:56:17.911Z,20.93
2017-12-12T08:58:45.303Z,24.83
2017-12-12T09:01:12.703Z,19.93
2017-12-12T09:03:40.086Z,29.23
2017-12-12T09:06:07.487Z,21.60
2017-12-12T09:08:34.878Z,22.20
2017-12-12T09:11:02.271Z,21.53
2017-12-12T09:13:29.668Z,24.97
2017-12-12T09:15:57.063Z,24.37
2017-12-12T09:18:25.219Z,27.77
2017-12-12T09:20:52.625Z,22.17
2017-12-12T09:23:20.009Z,21.77
2017-12-12T09:25:47.429Z,24.33
2017-12-12T09:28:14.812Z,17.70
2017-12-12T09:30:42.211Z,18.80
2017-12-12T09:33:09.601Z,16.40
2017-12-12T09:35:37.002Z,20.40
2017-12-12T09:38:04.395Z,16.03
2017-12-12T09:40:31.794Z,17.70
2017-12-12T09:42:59.186Z,22.47
2017-12-12T09:45:26.595Z,17.90
2017-12-12T09:47:53.995Z,16.70
2017-12-12T09:50:21.394Z,19.87
2017-12-12T09:52:48.786Z,17.97
2017-12-12T09:55:16.971Z,15.50
2017-12-12T09:57:44.371Z,16.23
2017-12-12T10:00:11.758Z,13.90
2017-12-12T10:02:39.162Z,13.00
2017-12-12T10:05:06.552Z,15.83
2017-12-12T10:07:33.971Z,13.10
2017-12-12T10:10:01.366Z,17.50
2017-12-12T10:12:28.763Z,13.10
2017-12-12T10:14:56.155Z,16.83
2017-12-12T10:17:23.551Z,14.20
2017-12-12T10:19:50.939Z,12.17
2017-12-12T10:22:18.331Z,13.00
2017-12-12T10:24:45.739Z,11.37
2017-12-12T10:27:13.136Z,11.10
2017-12-12T10:29:40.527Z,10.77
2017-12-12T10:32:07.936Z,13.27
2017-12-12T10:34:35.320Z,11.30
2017-12-12T10:37:02.747Z,9.47
2017-12-12T10:39:30.163Z,16.50
2017-12-12T10:41:57.546Z,11.97
2017-12-12T10:44:24.964Z,10.93
2017-12-12T10:46:52.355Z,16.83
2017-12-12T10:49:19.783Z,10.40
2017-12-12T10:51:47.180Z,10.50
2017-12-12T10:54:14.574Z,11.67
2017-12-12T10:56:41.964Z,9.13
2017-12-12T10:59:09.359Z,10.00
2017-12-12T11:01:36.745Z,11.53
2017-12-12T11:04:04.211Z,9.40
2017-12-12T11:06:31.590Z,8.60
2017-12-12T11:08:58.983Z,9.33
2017-12-12T11:11:26.365Z,7.30
2017-12-12T11:13:53.755Z,8.87
2017-12-12T11:16:21.196Z,8.40
2017-12-12T11:18:48.578Z,6.90
2017-12-12T11:21:16.000Z,9.23
2017-12-12T11:23:43.382Z,7.13
2017-12-12T11:26:10.774Z,10.70
2017-12-12T11:28:38.178Z,9.00
2017-12-12T11:31:05.563Z,8.50
2017-12-12T11:33:32.953Z,6.87
2017-12-12T11:36:00.343Z,8.17
2017-12-12T11:38:27.808Z,6.00
2017-12-12T11:40:55.127Z,6.73
2017-12-12T11:43:22.511Z,8.40
2017-12-12T11:45:49.899Z,6.90
2017-12-12T11:48:17.285Z,6.47
2017-12-12T11:50:44.671Z,6.90
2017-12-12T11:53:12.060Z,5.63
2017-12-12T11:55:39.448Z,5.30
2017-12-12T11:58:06.830Z,5.80
2017-12-12T12:00:34.214Z,5.20
2017-12-12T12:03:01.604Z,5.50
2017-12-12T12:05:28.989Z,7.43
2017-12-12T12:07:56.370Z,7.23
2017-12-12T12:10:23.792Z,6.23
2017-12-12T12:12:51.175Z,4.90
2017-12-12T12:15:18.571Z,5.33
2017-12-12T12:17:45.975Z,5.23
2017-12-12T12:20:13.362Z,5.67
2017-12-12T12:22:40.760Z,5.70
2017-12-12T12:25:08.147Z,6.20
2017-12-12T12:27:35.590Z,5.70
2017-12-12T12:30:04.584Z,5.93
2017-12-12T12:32:31.958Z,6.13
2017-12-12T12:34:59.584Z,6.33
2017-12-12T12:37:27.912Z,8.20
2017-12-12T12:39:55.290Z,6.10
2017-12-12T12:42:22.674Z,7.47
2017-12-12T12:44:50.053Z,7.17
2017-12-12T12:47:17.461Z,8.80
2017-12-12T12:49:44.834Z,7.83
2017-12-12T12:52:12.235Z,14.30
2017-12-12T12:54:39.607Z,8.23
2017-12-12T12:57:07.015Z,9.10
2017-12-12T12:59:34.384Z,10.03
2017-12-12T13:02:01.825Z,9.33
2017-12-12T13:04:29.251Z,9.43
2017-12-12T13:06:56.634Z,10.37
2017-12-12T13:09:24.027Z,10.67
2017-12-12T13:11:51.418Z,10.60
2017-12-12T13:14:18.839Z,8.13
2017-12-12T13:16:46.207Z,9.60
2017-12-12T13:19:13.599Z,10.10
2017-12-12T13:21:40.994Z,12.40
2017-12-12T13:24:08.375Z,11.50
2017-12-12T13:26:35.779Z,11.47
2017-12-12T13:29:03.167Z,11.40
2017-12-12T13:31:30.558Z,11.53
2017-12-12T13:33:57.953Z,12.50
2017-12-12T13:36:25.341Z,11.53
2017-12-12T13:38:52.837Z,12.00
2017-12-12T13:41:20.222Z,15.07
2017-12-12T13:43:47.611Z,12.30
2017-12-12T13:46:15.000Z,12.20
2017-12-12T13:48:42.395Z,12.30
2017-12-12T13:51:09.775Z,10.63
2017-12-12T13:53:37.393Z,13.03
2017-12-12T13:56:04.895Z,11.40
2017-12-12T13:58:32.382Z,12.80
2017-12-12T14:00:59.771Z,13.07
2017-12-12T14:03:27.281Z,11.13
2017-12-12T14:05:54.679Z,13.97
2017-12-12T14:08:22.091Z,12.70
2017-12-12T14:10:49.461Z,12.70
2017-12-12T14:13:22.599Z,13.60
2017-12-12T14:15:49.983Z,15.43
2017-12-12T14:18:17.386Z,16.00
2017-12-12T14:20:44.827Z,19.30
2017-12-12T14:23:12.247Z,15.13
2017-12-12T14:25:39.636Z,14.10
2017-12-12T14:28:07.036Z,22.60
2017-12-12T14:30:34.418Z,21.47
2017-12-12T14:33:01.832Z,14.63
2017-12-12T14:35:29.240Z,13.97
2017-12-12T14:37:56.635Z,21.40
2017-12-12T14:40:24.027Z,19.43
2017-12-12T14:42:51.444Z,21.37
2017-12-12T14:45:18.836Z,20.23
2017-12-12T14:47:46.226Z,19.63
2017-12-12T14:50:13.634Z,24.40
2017-12-12T14:52:41.011Z,19.73
2017-12-12T14:55:08.414Z,24.30
2017-12-12T14:57:35.803Z,22.90
2017-12-12T15:00:04.155Z,20.95
2017-12-12T15:02:31.547Z,21.37
2017-12-12T15:04:58.943Z,23.27
2017-12-12T15:07:26.382Z,19.93
2017-12-12T15:09:53.780Z,21.30
2017-12-12T15:12:21.183Z,16.53
2017-12-12T15:14:48.623Z,13.90
2017-12-12T15:17:16.015Z,22.43
2017-12-12T15:19:43.418Z,11.10
2017-12-12T15:22:10.794Z,12.00
2017-12-12T15:24:38.195Z,15.17
2017-12-12T15:27:05.624Z,12.53
2017-12-12T15:29:33.027Z,14.00
2017-12-12T15:32:00.432Z,15.33
2017-12-12T15:34:27.831Z,16.70
2017-12-12T15:36:55.227Z,12.00
2017-12-12T15:39:22.616Z,10.40
2017-12-12T15:41:50.012Z,13.67
2017-12-12T15:44:17.437Z,10.10
2017-12-12T15:46:44.807Z,15.00
2017-12-12T15:49:12.215Z,14.73
2017-12-12T15:51:39.620Z,14.87
2017-12-12T15:54:07.022Z,10.07
2017-12-12T15:56:34.422Z,18.20
2017-12-12T15:59:01.854Z,13.77
2017-12-12T16:01:29.251Z,11.00
2017-12-12T16:03:56.630Z,9.70
2017-12-12T16:06:24.031Z,13.33
2017-12-12T16:08:51.426Z,10.53
2017-12-12T16:11:18.822Z,11.33
2017-12-12T16:13:46.221Z,9.70
2017-12-12T16:16:13.610Z,11.53
2017-12-12T16:18:41.026Z,9.30
2017-12-12T16:21:08.426Z,11.07
2017-12-12T16:23:35.887Z,16.37
2017-12-12T16:26:03.267Z,9.03
2017-12-12T16:28:30.662Z,13.07
2017-12-12T16:30:58.056Z,11.07
2017-12-12T16:33:25.450Z,10.87
2017-12-12T16:35:52.863Z,15.40
2017-12-12T16:38:20.262Z,17.53
2017-12-12T16:40:47.648Z,16.93
2017-12-12T16:43:15.046Z,18.77
2017-12-12T16:45:42.439Z,14.53
2017-12-12T16:48:09.852Z,18.00
2017-12-12T16:50:37.268Z,17.10
2017-12-12T16:53:04.675Z,17.87
2017-12-12T16:55:32.067Z,19.33
2017-12-12T16:57:59.500Z,20.53
2017-12-12T17:00:26.922Z,20.13
2017-12-12T17:02:54.332Z,15.40
2017-12-12T17:05:21.719Z,18.03
2017-12-12T17:07:49.132Z,19.07
2017-12-12T17:10:16.522Z,30.83
2017-12-12T17:12:43.926Z,20.97
2017-12-12T17:15:11.332Z,20.77
2017-12-12T17:17:38.724Z,19.10
2017-12-12T17:20:06.127Z,16.90
2017-12-12T17:22:33.529Z,18.13
2017-12-12T17:25:00.951Z,20.83
2017-12-12T17:27:28.351Z,22.47
2017-12-12T17:29:55.750Z,25.70
2017-12-12T17:32:23.148Z,17.73
2017-12-12T17:34:50.548Z,24.67
2017-12-12T17:37:17.946Z,23.77
2017-12-12T17:39:45.345Z,24.30
2017-12-12T17:42:12.735Z,24.43
2017-12-12T17:44:40.135Z,25.30
2017-12-12T17:47:07.534Z,21.20
2017-12-12T17:49:34.926Z,24.10
2017-12-12T17:52:02.315Z,33.17
2017-12-12T17:54:29.702Z,29.20
2017-12-12T17:56:57.115Z,28.90
2017-12-12T17:59:24.508Z,25.50
2017-12-12T18:01:51.903Z,32.47
2017-12-12T18:04:19.290Z,34.63
2017-12-12T18:06:46.686Z,39.13
2017-12-12T18:09:14.091Z,38.60
2017-12-12T18:11:41.491Z,31.70
2017-12-12T18:14:08.886Z,31.70
2017-12-12T18:16:36.272Z,46.83
2017-12-12T18:19:03.662Z,39.70
2017-12-12T18:21:31.063Z,38.87
2017-12-12T18:23:58.468Z,32.53
2017-12-12T18:26:25.860Z,40.13
2017-12-12T18:28:53.259Z,34.80
2017-12-12T18:31:20.654Z,41.70
2017-12-12T18:33:48.046Z,35.10
2017-12-12T18:36:15.452Z,33.77
2017-12-12T18:38:42.931Z,33.83
2017-12-12T18:41:10.338Z,39.10
2017-12-12T18:43:37.731Z,32.67
2017-12-12T18:46:05.123Z,31.10
2017-12-12T18:48:32.528Z,35.80
2017-12-12T18:50:59.927Z,34.53
2017-12-12T18:53:27.407Z,36.23
2017-12-12T18:55:54.807Z,36.80
2017-12-12T18:58:22.211Z,35.17
2017-12-12T19:00:49.610Z,39.57
2017-12-12T19:03:17.085Z,40.33
2017-12-12T19:05:44.464Z,45.33
2017-12-12T19:08:11.867Z,41.80
2017-12-12T19:13:11.235Z,36.83
2017-12-12T19:15:38.635Z,36.17
2017-12-12T19:18:06.031Z,35.73
2017-12-12T19:20:33.424Z,42.93
2017-12-12T19:23:00.830Z,34.13
2017-12-12T19:25:28.223Z,43.13
2017-12-12T19:27:55.640Z,45.13
2017-12-12T19:30:23.035Z,41.00
2017-12-12T19:32:50.459Z,37.20
2017-12-12T19:35:17.855Z,38.83
2017-12-12T19:37:45.238Z,37.73
2017-12-12T19:40:12.643Z,42.27
2017-12-12T19:42:40.042Z,37.40
2017-12-12T19:45:07.451Z,38.47
2017-12-12T19:47:34.852Z,36.70
2017-12-12T19:50:02.255Z,33.30
2017-12-12T19:52:29.651Z,40.70
2017-12-12T19:54:57.067Z,33.13
2017-12-12T19:57:24.459Z,32.40
2017-12-12T19:59:51.866Z,38.77
2017-12-12T20:02:19.262Z,43.80
2017-12-12T20:04:46.670Z,33.07
2017-12-12T20:07:14.076Z,32.53
2017-12-12T20:09:41.492Z,33.23
2017-12-12T20:12:08.898Z,30.57
2017-12-12T20:14:36.295Z,39.73
2017-12-12T20:17:03.694Z,32.83
2017-12-12T20:19:31.098Z,35.40
2017-12-12T20:21:58.487Z,35.03
2017-12-12T20:24:25.911Z,32.60
2017-12-12T20:26:53.305Z,42.27
2017-12-12T20:29:20.697Z,36.80
2017-12-12T20:31:48.121Z,33.20
2017-12-12T20:34:15.507Z,39.17
2017-12-12T20:36:42.921Z,33.40
2017-12-12T20:39:10.316Z,33.70
2017-12-12T20:41:37.715Z,34.17
2017-12-12T20:44:05.117Z,40.10
2017-12-12T20:46:32.518Z,33.20
2017-12-12T20:48:59.920Z,29.70
2017-12-12T20:51:27.318Z,38.40
2017-12-12T20:53:54.719Z,46.60
2017-12-12T20:56:22.150Z,35.00
2017-12-12T20:58:49.551Z,34.70
2017-12-12T21:01:16.953Z,33.97
2017-12-12T21:03:44.343Z,30.40
2017-12-12T21:06:11.746Z,33.20
2017-12-12T21:08:39.226Z,38.77
2017-12-12T21:11:06.730Z,39.17
2017-12-12T21:13:34.122Z,34.27
2017-12-12T21:16:01.522Z,41.23
2017-12-12T21:18:28.915Z,35.30
2017-12-12T21:20:56.334Z,36.20
2017-12-12T21:23:23.726Z,34.80
2017-12-12T21:25:51.147Z,36.47
2017-12-12T21:28:18.546Z,34.97
2017-12-12T21:30:45.953Z,33.57
2017-12-12T21:33:13.364Z,38.60
2017-12-12T21:35:40.763Z,38.07
2017-12-12T21:38:08.176Z,42.97
2017-12-12T21:40:35.568Z,48.80
2017-12-12T21:43:02.984Z,40.07
2017-12-12T21:45:30.383Z,41.60
2017-12-12T21:47:57.783Z,45.30
2017-12-12T21:50:25.177Z,41.73
2017-12-12T21:52:52.574Z,48.23
2017-12-12T21:55:20.079Z,37.10
2017-12-12T21:57:47.486Z,44.77
2017-12-12T22:00:14.992Z,47.83
2017-12-12T22:02:42.407Z,40.37
2017-12-12T22:05:09.787Z,44.67
2017-12-12T22:07:37.190Z,44.50
2017-12-12T22:10:04.579Z,45.80
2017-12-12T22:12:31.983Z,37.77
2017-12-12T22:14:59.372Z,43.87
2017-12-12T22:17:26.775Z,43.33
2017-12-12T22:19:54.166Z,47.77
2017-12-12T22:22:21.592Z,44.57
2017-12-12T22:24:48.982Z,49.50
2017-12-12T22:27:16.379Z,42.97
2017-12-12T22:29:43.802Z,43.77
2017-12-12T22:32:11.192Z,42.03
2017-12-12T22:34:38.623Z,43.43
2017-12-12T22:37:06.015Z,44.53
2017-12-12T22:39:33.423Z,48.97
2017-12-12T22:42:00.827Z,38.53
2017-12-12T22:44:28.226Z,42.17
2017-12-12T22:46:55.622Z,42.70
2017-12-12T22:49:23.031Z,41.23
2017-12-12T22:51:51.327Z,44.70
2017-12-12T22:54:18.719Z,40.07
2017-12-12T22:56:46.120Z,38.67
2017-12-12T22:59:13.675Z,47.00
2017-12-12T23:01:41.076Z,39.03
2017-12-12T23:04:08.475Z,42.67
2017-12-12T23:06:35.883Z,38.93
2017-12-12T23:09:03.286Z,35.03
2017-12-12T23:11:30.685Z,38.87
2017-12-12T23:13:58.090Z,32.73
2017-12-12T23:16:25.483Z,27.43
2017-12-12T23:18:52.891Z,28.90
2017-12-12T23:21:20.279Z,33.17
2017-12-12T23:23:47.684Z,29.23
2017-12-12T23:26:15.118Z,28.57
2017-12-12T23:28:42.523Z,32.30
2017-12-12T23:31:09.922Z,31.70
2017-12-12T23:33:37.311Z,28.27
2017-12-12T23:36:04.771Z,29.80
2017-12-12T23:38:32.250Z,33.70
2017-12-12T23:40:59.655Z,30.03
2017-12-12T23:43:27.066Z,41.87
2017-12-12T23:45:54.463Z,32.83
2017-12-12T23:48:21.882Z,31.80
2017-12-12T23:50:49.284Z,29.40
2017-12-12T23:53:16.731Z,33.27
2017-12-12T23:55:44.130Z,30.03
2017-12-12T23:58:11.531Z,30.73
